Time;durP1;ratioP1;P1;durP2;ratioP2;P2;SDS_P1;SDS_P2;PMS_P1;PMS_P2;Temp;Humidity;BMP_temperature;BMP_pressure;BME280_temperature;BME280_humidity;BME280_pressure;Samples;Min_cycle;Max_cycle;Signal;HPM_P1;HPM_P2
2022/09/01 00:01:42;;;;;;;1.88;1.38;;;;;;;;;;5037476;28;20133;-52
2022/09/01 00:04:26;;;;;;;4.05;1.50;;;;;;;;;;5044587;28;20468;-49
2022/09/01 00:07:12;;;;;;;2.42;1.42;;;;;;;;;;5036830;28;20091;-52
2022/09/01 00:09:57;;;;;;;2.28;1.15;;;;;;;;;;5033324;28;20036;-53
2022/09/01 00:12:44;;;;;;;4.55;1.42;;;;;;;;;;5045210;28;20136;-52
2022/09/01 00:15:28;;;;;;;2.38;1.27;;;;;;;;;;5046362;28;20052;-51
2022/09/01 00:18:14;;;;;;;3.08;1.13;;;;;;;;;;5039906;28;20080;-53
2022/09/01 00:20:58;;;;;;;1.73;1.25;;;;;;;;;;5048964;28;20045;-53
2022/09/01 00:23:43;;;;;;;4.25;1.40;;;;;;;;;;5040734;28;20119;-50
2022/09/01 00:26:28;;;;;;;1.98;1.10;;;;;;;;;;5042400;28;20033;-51
2022/09/01 00:29:13;;;;;;;3.40;1.23;;;;;;;;;;5044238;28;20044;-50
2022/09/01 00:31:58;;;;;;;2.17;1.30;;;;;;;;;;5034114;28;20052;-53
2022/09/01 00:34:42;;;;;;;4.22;1.30;;;;;;;;;;5044594;28;20029;-49
2022/09/01 00:37:27;;;;;;;1.38;1.02;;;;;;;;;;5050556;28;20037;-51
2022/09/01 00:40:13;;;;;;;3.10;1.25;;;;;;;;;;5053007;28;20067;-53
2022/09/01 00:42:59;;;;;;;3.55;1.40;;;;;;;;;;5046710;28;20048;-49
2022/09/01 00:45:43;;;;;;;1.77;1.20;;;;;;;;;;5039875;28;20079;-53
2022/09/01 00:48:28;;;;;;;3.28;1.15;;;;;;;;;;5048174;28;20485;-51
2022/09/01 00:51:12;;;;;;;3.50;1.20;;;;;;;;;;5032887;28;20041;-50
2022/09/01 00:53:57;;;;;;;3.38;1.42;;;;;;;;;;5056362;28;20473;-48
2022/09/01 00:56:42;;;;;;;3.90;1.10;;;;;;;;;;5037732;28;20051;-54
2022/09/01 00:59:26;;;;;;;2.38;1.17;;;;;;;;;;5040882;28;20041;-52
2022/09/01 01:02:11;;;;;;;2.53;1.48;;;;;;;;;;5043512;28;20037;-51
2022/09/01 01:04:59;;;;;;;2.60;1.25;;;;;;;;;;5043280;28;20037;-52
2022/09/01 01:07:46;;;;;;;2.00;1.25;;;;;;;;;;5062863;28;20049;-52
2022/09/01 01:10:31;;;;;;;2.72;1.45;;;;;;;;;;5037870;28;20030;-49
2022/09/01 01:13:16;;;;;;;5.28;1.48;;;;;;;;;;5048308;28;20057;-49
2022/09/01 01:16:02;;;;;;;2.42;1.08;;;;;;;;;;5039110;28;20441;-50
2022/09/01 01:18:47;;;;;;;2.83;1.15;;;;;;;;;;5047331;28;20391;-51
2022/09/01 01:24:37;;;;;;;2.13;1.30;;;;;;;;;;5050264;28;20061;-54
2022/09/01 01:27:21;;;;;;;2.55;1.50;;;;;;;;;;5026274;28;20052;-56
2022/09/01 01:30:09;;;;;;;1.77;1.20;;;;;;;;;;5042576;28;20116;-52
2022/09/01 01:32:56;;;;;;;3.15;1.52;;;;;;;;;;5052342;28;20108;-53
2022/09/01 01:35:42;;;;;;;5.18;2.20;;;;;;;;;;5049525;28;20045;-52
2022/09/01 01:38:27;;;;;;;2.00;1.38;;;;;;;;;;5052758;28;20392;-50
2022/09/01 01:41:14;;;;;;;4.53;1.50;;;;;;;;;;5045923;28;20465;-54
2022/09/01 01:44:00;;;;;;;3.63;1.30;;;;;;;;;;5040035;28;20033;-50
2022/09/01 01:46:48;;;;;;;2.38;1.10;;;;;;;;;;5047785;28;20049;-51
2022/09/01 01:49:34;;;;;;;3.70;1.75;;;;;;;;;;5060329;28;20253;-50
2022/09/01 01:52:20;;;;;;;2.30;1.30;;;;;;;;;;5040417;28;20033;-50
2022/09/01 01:55:11;;;;;;;3.13;1.20;;;;;;;;;;5030289;28;20056;-51
2022/09/01 01:57:59;;;;;;;2.20;1.38;;;;;;;;;;5049125;28;20025;-51
2022/09/01 02:00:46;;;;;;;3.17;1.35;;;;;;;;;;5050296;28;20388;-51
2022/09/01 02:03:35;;;;;;;2.63;1.73;;;;;;;;;;5050255;28;20124;-50
2022/09/01 02:06:24;;;;;;;3.22;1.27;;;;;;;;;;5056294;28;20041;-51
2022/09/01 02:09:11;;;;;;;2.83;0.90;;;;;;;;;;5040664;28;20348;-53
2022/09/01 02:11:57;;;;;;;2.42;1.40;;;;;;;;;;5050564;28;20043;-54
2022/09/01 02:14:43;;;;;;;1.60;0.80;;;;;;;;;;5050603;28;20061;-58
2022/09/01 02:17:28;;;;;;;2.33;1.10;;;;;;;;;;5037591;28;20049;-53
2022/09/01 02:20:15;;;;;;;1.63;1.00;;;;;;;;;;5063079;28;20041;-52
2022/09/01 02:23:08;;;;;;;2.45;1.17;;;;;;;;;;5039275;28;20048;-52
2022/09/01 02:25:54;;;;;;;3.10;1.10;;;;;;;;;;5046903;28;20039;-52
2022/09/01 02:28:41;;;;;;;1.77;0.95;;;;;;;;;;5024520;28;20049;-50
2022/09/01 02:31:26;;;;;;;2.50;1.00;;;;;;;;;;5038103;28;20532;-53
2022/09/01 02:34:12;;;;;;;1.52;1.00;;;;;;;;;;5013910;28;20044;-56
2022/09/01 02:36:58;;;;;;;1.77;0.88;;;;;;;;;;5035262;28;20132;-52
2022/09/01 02:39:43;;;;;;;2.67;0.90;;;;;;;;;;5035977;28;20115;-50
2022/09/01 02:42:28;;;;;;;2.17;1.08;;;;;;;;;;5022891;28;20477;-51
2022/09/01 02:45:15;;;;;;;1.55;0.70;;;;;;;;;;5047812;28;20461;-52
2022/09/01 02:47:59;;;;;;;1.52;0.90;;;;;;;;;;5048580;28;20203;-52
2022/09/01 02:50:44;;;;;;;1.83;1.10;;;;;;;;;;5046224;28;20128;-53
2022/09/01 02:53:31;;;;;;;1.30;0.80;;;;;;;;;;5038151;28;20110;-51
2022/09/01 02:56:17;;;;;;;1.40;0.90;;;;;;;;;;5048128;28;20041;-49
2022/09/01 02:59:02;;;;;;;1.85;0.93;;;;;;;;;;5047061;28;20127;-50
2022/09/01 03:01:48;;;;;;;1.73;1.00;;;;;;;;;;5054313;28;20045;-53
2022/09/01 03:04:34;;;;;;;3.30;1.13;;;;;;;;;;5035515;28;20041;-49
2022/09/01 03:07:20;;;;;;;2.42;1.15;;;;;;;;;;5053591;28;20499;-51
2022/09/01 03:10:08;;;;;;;1.60;0.90;;;;;;;;;;5033452;28;20133;-52
2022/09/01 03:12:53;;;;;;;3.97;1.27;;;;;;;;;;5033130;28;20037;-54
2022/09/01 03:15:38;;;;;;;1.92;0.93;;;;;;;;;;5052530;28;20029;-51
2022/09/01 03:18:23;;;;;;;1.80;0.90;;;;;;;;;;5042892;28;20040;-53
2022/09/01 03:21:08;;;;;;;1.67;0.88;;;;;;;;;;5043857;28;20434;-53
2022/09/01 03:23:52;;;;;;;3.88;1.30;;;;;;;;;;5023162;28;20042;-52
2022/09/01 03:26:37;;;;;;;1.55;0.77;;;;;;;;;;5052700;28;20106;-52
2022/09/01 03:29:22;;;;;;;3.53;1.38;;;;;;;;;;5051561;28;20037;-52
2022/09/01 03:32:06;;;;;;;2.55;1.15;;;;;;;;;;5044333;28;20119;-53
2022/09/01 03:34:51;;;;;;;1.98;1.08;;;;;;;;;;5046779;28;20266;-51
2022/09/01 03:37:38;;;;;;;2.40;1.10;;;;;;;;;;5047405;28;20041;-48
2022/09/01 03:40:26;;;;;;;2.75;1.75;;;;;;;;;;5055700;28;20045;-49
2022/09/01 03:43:12;;;;;;;2.13;0.85;;;;;;;;;;5037853;28;20033;-52
2022/09/01 03:45:59;;;;;;;1.85;1.10;;;;;;;;;;5029057;28;20064;-54
2022/09/01 03:48:47;;;;;;;3.83;1.50;;;;;;;;;;5046565;28;20067;-52
2022/09/01 03:51:33;;;;;;;2.25;1.05;;;;;;;;;;5043563;28;20056;-48
2022/09/01 03:54:23;;;;;;;3.40;1.20;;;;;;;;;;5056871;28;20072;-51
2022/09/01 03:57:09;;;;;;;2.00;1.20;;;;;;;;;;5046378;28;20479;-53
2022/09/01 03:59:54;;;;;;;1.73;1.17;;;;;;;;;;5038226;28;20464;-50
2022/09/01 04:02:38;;;;;;;2.35;1.00;;;;;;;;;;5039307;28;20125;-48
2022/09/01 04:05:27;;;;;;;2.65;1.30;;;;;;;;;;5044738;28;20128;-49
2022/09/01 04:08:12;;;;;;;2.58;1.20;;;;;;;;;;5042746;28;20045;-50
2022/09/01 04:10:59;;;;;;;4.43;1.50;;;;;;;;;;5029717;28;20037;-51
2022/09/01 04:13:45;;;;;;;3.20;1.38;;;;;;;;;;5049361;28;20130;-51
2022/09/01 04:19:38;;;;;;;2.15;0.90;;;;;;;;;;5041644;28;20376;-53
2022/09/01 04:22:28;;;;;;;2.42;1.48;;;;;;;;;;5046979;28;20041;-53
2022/09/01 04:25:13;;;;;;;2.20;1.33;;;;;;;;;;5038930;28;20068;-52
2022/09/01 04:27:58;;;;;;;2.33;1.00;;;;;;;;;;5055668;28;20505;-51
2022/09/01 04:30:42;;;;;;;3.83;1.40;;;;;;;;;;5046727;28;20068;-51
2022/09/01 04:33:36;;;;;;;3.40;1.35;;;;;;;;;;5041398;28;20104;-51
2022/09/01 04:36:24;;;;;;;2.25;1.10;;;;;;;;;;5036509;28;20041;-51
2022/09/01 04:39:10;;;;;;;2.17;1.00;;;;;;;;;;5065031;28;20156;-52
2022/09/01 04:41:54;;;;;;;4.60;1.17;;;;;;;;;;5030196;28;20041;-52
2022/09/01 04:44:39;;;;;;;1.77;1.15;;;;;;;;;;5038490;28;20041;-49
2022/09/01 04:47:30;;;;;;;2.63;1.50;;;;;;;;;;5045797;28;20048;-53
2022/09/01 04:50:16;;;;;;;1.75;1.10;;;;;;;;;;5041199;28;20473;-51
2022/09/01 04:53:05;;;;;;;2.90;1.42;;;;;;;;;;5049590;28;20040;-51
2022/09/01 04:55:53;;;;;;;4.40;1.20;;;;;;;;;;5048511;28;20052;-55
2022/09/01 04:58:39;;;;;;;2.88;1.10;;;;;;;;;;5061693;28;20045;-47
2022/09/01 05:01:25;;;;;;;2.08;1.27;;;;;;;;;;5035996;28;20037;-52
2022/09/01 05:04:11;;;;;;;2.10;1.25;;;;;;;;;;5036259;28;20045;-46
2022/09/01 05:07:01;;;;;;;5.15;1.48;;;;;;;;;;5041899;28;20041;-59
2022/09/01 05:09:56;;;;;;;3.53;1.50;;;;;;;;;;5038027;28;20037;-59
2022/09/01 05:13:08;;;;;;;4.15;1.45;;;;;;;;;;5044160;28;20079;-54
2022/09/01 05:16:02;;;;;;;3.03;1.50;;;;;;;;;;5047927;28;20083;-53
2022/09/01 05:18:48;;;;;;;3.30;1.40;;;;;;;;;;5064158;28;20057;-54
2022/09/01 05:21:36;;;;;;;4.80;1.40;;;;;;;;;;5047859;28;20041;-54
2022/09/01 05:24:24;;;;;;;3.15;1.30;;;;;;;;;;5059966;28;20112;-54
2022/09/01 05:27:11;;;;;;;3.85;2.15;;;;;;;;;;5037744;28;20575;-54
2022/09/01 05:29:59;;;;;;;5.35;1.40;;;;;;;;;;5042132;28;20468;-54
2022/09/01 05:32:47;;;;;;;2.28;1.05;;;;;;;;;;5047368;28;20056;-58
2022/09/01 05:35:33;;;;;;;3.58;1.30;;;;;;;;;;5046616;28;20140;-58
2022/09/01 05:38:19;;;;;;;5.30;1.50;;;;;;;;;;5050867;28;20045;-55
2022/09/01 05:41:05;;;;;;;2.30;1.15;;;;;;;;;;5045747;28;20044;-56
2022/09/01 05:43:52;;;;;;;3.47;1.40;;;;;;;;;;5043555;28;20121;-57
2022/09/01 05:46:38;;;;;;;4.07;1.33;;;;;;;;;;5044394;28;20508;-57
2022/09/01 05:49:23;;;;;;;3.20;1.58;;;;;;;;;;5052803;28;20033;-58
2022/09/01 05:52:09;;;;;;;3.10;1.35;;;;;;;;;;5045683;28;20053;-55
2022/09/01 05:54:58;;;;;;;1.92;1.08;;;;;;;;;;5043245;28;20121;-55
2022/09/01 05:57:46;;;;;;;2.28;1.30;;;;;;;;;;5028070;28;20124;-58
2022/09/01 06:00:33;;;;;;;2.72;1.42;;;;;;;;;;5049863;28;20116;-57
2022/09/01 06:03:20;;;;;;;2.42;1.30;;;;;;;;;;5045362;28;20124;-58
2022/09/01 06:06:08;;;;;;;3.38;1.58;;;;;;;;;;5066524;28;20128;-58
2022/09/01 06:08:57;;;;;;;4.40;1.70;;;;;;;;;;5032904;28;20512;-56
2022/09/01 06:11:45;;;;;;;3.97;1.60;;;;;;;;;;5076595;28;20037;-54
2022/09/01 06:14:30;;;;;;;5.63;1.20;;;;;;;;;;5028943;28;20069;-57
2022/09/01 06:17:23;;;;;;;3.83;1.65;;;;;;;;;;5036928;28;20060;-59
2022/09/01 06:20:09;;;;;;;6.30;1.67;;;;;;;;;;5028397;28;20053;-56
2022/09/01 06:22:55;;;;;;;6.38;2.13;;;;;;;;;;5041359;28;20098;-58
2022/09/01 06:25:42;;;;;;;5.60;2.45;;;;;;;;;;5059646;28;20037;-56
2022/09/01 06:28:28;;;;;;;5.15;2.03;;;;;;;;;;5045274;28;20048;-57
2022/09/01 06:31:14;;;;;;;4.78;1.90;;;;;;;;;;5049327;28;20039;-55
2022/09/01 06:34:00;;;;;;;5.30;1.90;;;;;;;;;;5047750;28;20123;-56
2022/09/01 06:36:47;;;;;;;2.35;1.33;;;;;;;;;;5050524;28;20116;-52
2022/09/01 06:39:33;;;;;;;5.00;1.60;;;;;;;;;;5044410;28;20049;-59
2022/09/01 06:42:18;;;;;;;2.72;1.65;;;;;;;;;;5040776;28;20036;-49
2022/09/01 06:45:13;;;;;;;4.53;1.85;;;;;;;;;;5045789;28;20441;-49
2022/09/01 06:47:59;;;;;;;3.45;1.40;;;;;;;;;;5049375;28;20079;-56
2022/09/01 06:50:44;;;;;;;3.67;1.38;;;;;;;;;;5063332;28;20380;-54
2022/09/01 06:53:30;;;;;;;6.93;1.52;;;;;;;;;;5055449;28;20033;-51
2022/09/01 06:56:17;;;;;;;3.25;1.65;;;;;;;;;;5055880;28;20045;-56
2022/09/01 06:59:04;;;;;;;5.07;1.80;;;;;;;;;;5043798;28;20120;-56
2022/09/01 07:01:53;;;;;;;3.03;1.90;;;;;;;;;;5044870;28;20049;-59
2022/09/01 07:04:47;;;;;;;2.72;1.15;;;;;;;;;;5045209;28;20075;-57
2022/09/01 07:07:33;;;;;;;3.38;1.40;;;;;;;;;;5045084;28;20060;-57
2022/09/01 07:10:44;;;;;;;3.75;1.50;;;;;;;;;;5042536;28;20100;-57
2022/09/01 07:13:35;;;;;;;3.75;2.20;;;;;;;;;;5034043;28;20045;-59
2022/09/01 07:16:21;;;;;;;3.63;1.45;;;;;;;;;;5045671;28;20045;-60
2022/09/01 07:19:11;;;;;;;3.03;1.50;;;;;;;;;;5029670;28;20049;-59
2022/09/01 07:21:58;;;;;;;4.43;1.50;;;;;;;;;;5036164;28;20037;-56
2022/09/01 07:24:44;;;;;;;3.85;1.30;;;;;;;;;;5048548;28;20164;-56
2022/09/01 07:27:50;;;;;;;2.72;1.30;;;;;;;;;;5027040;28;20064;-59
2022/09/01 07:30:40;;;;;;;3.55;1.30;;;;;;;;;;5045478;28;20045;-58
2022/09/01 07:33:26;;;;;;;2.22;1.20;;;;;;;;;;5058976;28;20048;-59
2022/09/01 07:36:14;;;;;;;5.60;1.52;;;;;;;;;;5050203;28;20056;-60
2022/09/01 07:39:00;;;;;;;3.05;1.25;;;;;;;;;;5050537;28;20079;-60
2022/09/01 07:41:45;;;;;;;2.08;1.05;;;;;;;;;;5041643;28;20033;-58
2022/09/01 07:44:57;;;;;;;2.80;1.38;;;;;;;;;;5032026;28;20568;-59
2022/09/01 07:48:05;;;;;;;3.45;1.23;;;;;;;;;;5045579;28;20380;-58
2022/09/01 07:50:54;;;;;;;4.47;1.20;;;;;;;;;;5039839;28;20038;-58
2022/09/01 07:53:39;;;;;;;3.75;1.05;;;;;;;;;;5045017;28;20145;-58
2022/09/01 07:56:29;;;;;;;5.43;1.27;;;;;;;;;;5030159;28;20110;-58
2022/09/01 07:59:14;;;;;;;2.70;1.30;;;;;;;;;;5030133;28;20055;-57
2022/09/01 08:02:07;;;;;;;4.13;1.27;;;;;;;;;;5074223;28;20500;-58
2022/09/01 08:04:52;;;;;;;2.15;1.00;;;;;;;;;;5044398;28;20143;-58
2022/09/01 08:07:37;;;;;;;5.32;1.77;;;;;;;;;;5044812;28;20040;-58
2022/09/01 08:10:22;;;;;;;2.50;1.02;;;;;;;;;;5047276;28;20040;-57
2022/09/01 08:13:09;;;;;;;1.98;1.00;;;;;;;;;;5039144;28;20045;-57
2022/09/01 08:15:54;;;;;;;3.40;1.10;;;;;;;;;;5047912;28;20080;-56
2022/09/01 08:18:40;;;;;;;3.40;1.25;;;;;;;;;;5050151;28;20041;-57
2022/09/01 08:21:27;;;;;;;3.08;1.30;;;;;;;;;;5031239;28;20068;-57
2022/09/01 08:24:38;;;;;;;4.13;1.33;;;;;;;;;;5028106;28;20120;-57
2022/09/01 08:27:22;;;;;;;2.28;1.17;;;;;;;;;;5024908;28;20103;-57
2022/09/01 08:30:09;;;;;;;2.83;1.23;;;;;;;;;;5048403;28;20120;-57
2022/09/01 08:32:54;;;;;;;2.97;1.10;;;;;;;;;;5030571;28;20060;-57
2022/09/01 08:35:39;;;;;;;3.05;0.98;;;;;;;;;;5046701;28;20036;-58
2022/09/01 08:38:24;;;;;;;3.65;1.10;;;;;;;;;;5059184;28;20488;-58
2022/09/01 08:41:16;;;;;;;6.22;1.60;;;;;;;;;;5035288;28;20091;-56
2022/09/01 08:44:08;;;;;;;2.47;1.10;;;;;;;;;;5033550;28;20491;-57
2022/09/01 08:46:56;;;;;;;1.90;1.00;;;;;;;;;;5028799;28;20735;-59
2022/09/01 08:49:44;;;;;;;2.13;1.10;;;;;;;;;;5019838;28;20088;-57
2022/09/01 08:52:37;;;;;;;1.95;1.02;;;;;;;;;;5038722;28;20045;-57
2022/09/01 08:55:30;;;;;;;2.03;1.08;;;;;;;;;;5038554;28;20430;-57
2022/09/01 08:58:17;;;;;;;3.05;1.15;;;;;;;;;;5030429;28;20136;-59
2022/09/01 09:01:29;;;;;;;1.85;1.13;;;;;;;;;;5040303;28;20101;-57
2022/09/01 09:04:32;;;;;;;1.85;0.90;;;;;;;;;;5039615;28;20452;-57
2022/09/01 09:07:16;;;;;;;2.33;0.70;;;;;;;;;;5041626;28;20037;-57
2022/09/01 09:10:00;;;;;;;3.40;0.90;;;;;;;;;;5044112;28;20116;-58
2022/09/01 09:13:07;;;;;;;1.58;0.70;;;;;;;;;;5042635;28;20037;-58
2022/09/01 09:15:52;;;;;;;2.38;0.65;;;;;;;;;;5040588;28;20040;-57
2022/09/01 09:18:42;;;;;;;3.60;0.98;;;;;;;;;;5044781;28;20041;-57
2022/09/01 09:21:27;;;;;;;;;;;;;;;;;;5050349;28;20048;-55
2022/09/01 09:24:17;;;;;;;2.67;0.82;;;;;;;;;;5041349;28;20070;-58
2022/09/01 09:27:02;;;;;;;5.20;1.08;;;;;;;;;;5042696;28;20069;-58
2022/09/01 09:29:52;;;;;;;1.92;1.00;;;;;;;;;;5049467;28;20029;-58
2022/09/01 09:32:49;;;;;;;4.05;1.00;;;;;;;;;;5027079;28;20457;-58
2022/09/01 09:35:36;;;;;;;1.70;0.80;;;;;;;;;;5045816;28;20067;-55
2022/09/01 09:38:27;;;;;;;2.95;0.90;;;;;;;;;;5042096;28;20041;-57
2022/09/01 09:41:19;;;;;;;2.03;0.60;;;;;;;;;;5039313;28;20446;-58
2022/09/01 09:44:16;;;;;;;2.33;1.08;;;;;;;;;;5038442;28;20488;-57
2022/09/01 09:47:01;;;;;;;2.90;1.33;;;;;;;;;;5044680;28;20068;-57
2022/09/01 09:49:45;;;;;;;2.75;1.08;;;;;;;;;;5039240;28;20045;-57
2022/09/01 09:52:30;;;;;;;3.03;1.30;;;;;;;;;;5045026;28;20041;-58
2022/09/01 09:55:20;;;;;;;3.63;1.10;;;;;;;;;;5046857;28;20103;-58
2022/09/01 09:58:09;;;;;;;1.63;0.75;;;;;;;;;;5047663;28;20091;-57
2022/09/01 10:00:59;;;;;;;2.67;0.88;;;;;;;;;;5029869;28;20469;-58
2022/09/01 10:03:45;;;;;;;2.73;0.80;;;;;;;;;;5050504;28;20036;-58
2022/09/01 10:06:38;;;;;;;1.55;0.80;;;;;;;;;;5052535;28;20041;-58
2022/09/01 10:09:23;;;;;;;3.70;1.10;;;;;;;;;;5037686;28;20041;-58
2022/09/01 10:12:08;;;;;;;1.67;0.70;;;;;;;;;;5046800;28;20467;-58
2022/09/01 10:15:00;;;;;;;1.90;0.75;;;;;;;;;;5032404;28;20554;-57
2022/09/01 10:17:45;;;;;;;3.67;1.00;;;;;;;;;;5043211;28;20041;-57
2022/09/01 10:20:31;;;;;;;3.53;1.20;;;;;;;;;;5048968;28;20467;-57
2022/09/01 10:23:16;;;;;;;1.95;0.82;;;;;;;;;;5038334;28;20045;-58
2022/09/01 10:26:05;;;;;;;3.22;1.27;;;;;;;;;;5034656;28;20041;-58
2022/09/01 10:28:53;;;;;;;6.20;1.27;;;;;;;;;;5036136;28;20045;-58
2022/09/01 10:31:38;;;;;;;1.80;0.93;;;;;;;;;;5041260;28;20033;-58
2022/09/01 10:34:23;;;;;;;2.70;0.73;;;;;;;;;;5053468;28;20607;-58
2022/09/01 10:37:07;;;;;;;0.88;0.50;;;;;;;;;;5047883;28;20049;-57
2022/09/01 10:40:11;;;;;;;3.42;1.77;;;;;;;;;;5040306;28;20067;-57
2022/09/01 10:42:56;;;;;;;1.55;0.60;;;;;;;;;;5050039;28;20041;-58
2022/09/01 10:45:42;;;;;;;2.22;0.70;;;;;;;;;;5049359;28;20114;-56
2022/09/01 10:48:28;;;;;;;2.78;0.63;;;;;;;;;;5042544;28;20055;-57
2022/09/01 10:51:12;;;;;;;3.15;0.85;;;;;;;;;;5035217;28;20062;-58
2022/09/01 10:53:57;;;;;;;3.25;0.70;;;;;;;;;;5044694;28;20040;-57
2022/09/01 10:56:47;;;;;;;1.23;0.57;;;;;;;;;;5028584;28;20115;-59
2022/09/01 10:59:31;;;;;;;1.10;0.50;;;;;;;;;;5045046;28;20043;-58
2022/09/01 11:02:17;;;;;;;1.58;0.70;;;;;;;;;;5049583;28;20116;-58
2022/09/01 11:05:02;;;;;;;1.20;0.70;;;;;;;;;;5048788;28;20361;-58
2022/09/01 11:07:46;;;;;;;2.03;0.50;;;;;;;;;;5034971;28;20045;-59
2022/09/01 11:10:39;;;;;;;2.75;1.20;;;;;;;;;;5035169;28;20537;-58
2022/09/01 11:13:40;;;;;;;2.10;1.10;;;;;;;;;;5046463;28;20443;-58
2022/09/01 11:16:26;;;;;;;1.15;0.60;;;;;;;;;;5048199;28;20037;-57
2022/09/01 11:19:27;;;;;;;1.83;0.60;;;;;;;;;;5043425;28;20531;-56
2022/09/01 11:22:12;;;;;;;6.65;0.60;;;;;;;;;;5048802;28;20464;-57
2022/09/01 11:25:05;;;;;;;1.02;0.35;;;;;;;;;;5038800;28;20048;-58
2022/09/01 11:27:49;;;;;;;1.92;0.60;;;;;;;;;;5041023;28;20161;-58
2022/09/01 11:30:51;;;;;;;1.45;0.68;;;;;;;;;;5033733;28;20040;-57
2022/09/01 11:33:51;;;;;;;2.17;0.70;;;;;;;;;;5040288;28;20090;-59
2022/09/01 11:36:47;;;;;;;1.67;0.50;;;;;;;;;;5036947;28;20072;-58
2022/09/01 11:39:32;;;;;;;5.80;2.45;;;;;;;;;;5030727;28;20449;-57
2022/09/01 11:42:19;;;;;;;5.60;2.65;;;;;;;;;;5058156;28;20053;-58
2022/09/01 11:45:05;;;;;;;3.63;0.73;;;;;;;;;;5045534;28;20060;-58
2022/09/01 11:47:53;;;;;;;1.58;0.60;;;;;;;;;;5048189;28;20121;-57
2022/09/01 11:50:39;;;;;;;1.70;0.70;;;;;;;;;;5043535;28;20041;-57
2022/09/01 11:53:24;;;;;;;1.45;0.60;;;;;;;;;;5033592;28;20116;-58
2022/09/01 11:56:23;;;;;;;2.35;0.80;;;;;;;;;;5049627;28;20063;-58
2022/09/01 11:59:08;;;;;;;1.40;0.80;;;;;;;;;;5048293;28;20041;-59
2022/09/01 12:01:56;;;;;;;1.98;0.80;;;;;;;;;;5043731;28;20041;-58
2022/09/01 12:04:41;;;;;;;1.27;0.60;;;;;;;;;;5047101;28;20033;-59
2022/09/01 12:07:29;;;;;;;3.72;0.90;;;;;;;;;;5034028;28;20397;-58
2022/09/01 12:10:20;;;;;;;1.80;0.77;;;;;;;;;;5047664;28;20532;-58
2022/09/01 12:13:06;;;;;;;4.10;1.05;;;;;;;;;;5016454;28;20051;-59
2022/09/01 12:15:55;;;;;;;1.58;0.98;;;;;;;;;;5044707;28;20037;-58
2022/09/01 12:18:46;;;;;;;1.73;0.80;;;;;;;;;;5041321;28;20060;-58
2022/09/01 12:21:41;;;;;;;2.38;0.95;;;;;;;;;;5043732;28;20056;-59
2022/09/01 12:24:27;;;;;;;1.25;0.57;;;;;;;;;;5034395;28;20162;-57
2022/09/01 12:27:12;;;;;;;1.10;0.70;;;;;;;;;;5062825;28;20119;-58
2022/09/01 12:29:57;;;;;;;3.22;0.90;;;;;;;;;;5053421;28;20083;-58
2022/09/01 12:32:42;;;;;;;1.60;0.80;;;;;;;;;;5047900;28;20071;-58
2022/09/01 12:35:27;;;;;;;5.03;1.08;;;;;;;;;;5044667;28;20506;-59
2022/09/01 12:38:17;;;;;;;1.95;0.80;;;;;;;;;;5041336;28;20090;-57
2022/09/01 12:41:01;;;;;;;2.20;1.23;;;;;;;;;;5043377;28;20056;-57
2022/09/01 12:43:46;;;;;;;2.78;1.17;;;;;;;;;;5039200;28;20527;-58
2022/09/01 12:46:44;;;;;;;3.30;1.10;;;;;;;;;;5048038;28;20041;-57
2022/09/01 12:49:35;;;;;;;1.88;0.90;;;;;;;;;;5039892;28;20065;-57
2022/09/01 12:52:24;;;;;;;2.33;0.90;;;;;;;;;;5042928;28;20030;-57
2022/09/01 12:55:13;;;;;;;1.83;1.00;;;;;;;;;;5033648;28;20038;-57
2022/09/01 12:57:58;;;;;;;2.85;0.80;;;;;;;;;;5050552;28;20480;-57
2022/09/01 13:00:57;;;;;;;2.83;1.05;;;;;;;;;;5049417;28;20131;-58
2022/09/01 13:04:02;;;;;;;2.92;0.70;;;;;;;;;;5048705;28;20150;-57
2022/09/01 13:06:46;;;;;;;2.85;0.65;;;;;;;;;;5058237;28;20049;-58
2022/09/01 13:09:31;;;;;;;1.73;0.80;;;;;;;;;;5047399;28;20039;-57
2022/09/01 13:12:20;;;;;;;2.20;0.80;;;;;;;;;;5043259;28;20444;-59
2022/09/01 13:15:04;;;;;;;2.00;0.93;;;;;;;;;;5050721;28;20119;-57
2022/09/01 13:17:49;;;;;;;1.52;0.80;;;;;;;;;;5047267;28;20072;-58
2022/09/01 13:20:34;;;;;;;1.92;0.80;;;;;;;;;;5043892;28;20049;-57
2022/09/01 13:23:19;;;;;;;1.58;0.73;;;;;;;;;;5047874;28;20160;-58
2022/09/01 13:26:04;;;;;;;1.63;0.63;;;;;;;;;;5041849;28;20049;-58
2022/09/01 13:28:49;;;;;;;1.35;0.80;;;;;;;;;;5049552;28;20095;-57
2022/09/01 13:31:33;;;;;;;2.72;0.75;;;;;;;;;;5045629;28;20033;-57
2022/09/01 13:34:19;;;;;;;1.35;0.75;;;;;;;;;;5043566;28;20047;-58
2022/09/01 13:37:03;;;;;;;1.08;0.63;;;;;;;;;;5051666;28;20044;-56
2022/09/01 13:39:48;;;;;;;2.22;1.08;;;;;;;;;;5040092;28;20052;-56
2022/09/01 13:42:32;;;;;;;2.33;0.90;;;;;;;;;;5042988;28;20458;-56
2022/09/01 13:45:23;;;;;;;2.72;0.77;;;;;;;;;;5043337;28;20060;-59
2022/09/01 13:48:08;;;;;;;1.27;0.73;;;;;;;;;;5038412;28;20052;-59
2022/09/01 13:50:53;;;;;;;2.53;1.13;;;;;;;;;;5050929;28;20104;-58
2022/09/01 13:53:38;;;;;;;2.47;0.70;;;;;;;;;;5042290;28;20088;-58
2022/09/01 13:56:22;;;;;;;1.40;0.80;;;;;;;;;;5033433;28;20485;-58
2022/09/01 13:59:07;;;;;;;1.05;0.68;;;;;;;;;;5016863;28;20067;-57
2022/09/01 14:01:51;;;;;;;2.20;0.80;;;;;;;;;;5050320;28;20124;-58
2022/09/01 14:04:35;;;;;;;5.10;0.90;;;;;;;;;;5049416;28;20106;-57
2022/09/01 14:07:20;;;;;;;1.52;0.88;;;;;;;;;;5051186;28;20075;-58
2022/09/01 14:10:06;;;;;;;3.40;1.05;;;;;;;;;;5050621;28;20083;-57
2022/09/01 14:12:50;;;;;;;1.38;0.65;;;;;;;;;;5050719;28;20411;-57
2022/09/01 14:15:35;;;;;;;2.50;0.60;;;;;;;;;;5077186;28;20037;-59
2022/09/01 14:18:20;;;;;;;2.03;0.80;;;;;;;;;;5043408;28;20122;-65
2022/09/01 14:21:09;;;;;;;2.35;0.80;;;;;;;;;;5051273;28;20419;-46
2022/09/01 14:23:53;;;;;;;2.15;0.80;;;;;;;;;;5048445;28;20036;-49
2022/09/01 14:26:40;;;;;;;1.70;0.65;;;;;;;;;;5040884;28;20045;-49
2022/09/01 14:29:28;;;;;;;1.30;0.70;;;;;;;;;;5050208;28;20039;-55
2022/09/01 14:32:13;;;;;;;2.47;1.08;;;;;;;;;;5046841;28;20144;-56
2022/09/01 14:34:58;;;;;;;1.20;0.57;;;;;;;;;;5042688;28;20052;-57
2022/09/01 14:37:44;;;;;;;1.98;0.68;;;;;;;;;;5033552;28;20444;-58
2022/09/01 14:40:29;;;;;;;1.58;0.70;;;;;;;;;;5047694;28;20042;-58
2022/09/01 14:43:13;;;;;;;3.70;0.70;;;;;;;;;;5041077;28;20369;-58
2022/09/01 14:46:05;;;;;;;3.53;0.80;;;;;;;;;;5049100;28;20041;-58
2022/09/01 14:48:49;;;;;;;2.85;0.90;;;;;;;;;;5038546;28;20056;-54
2022/09/01 14:51:37;;;;;;;2.38;0.70;;;;;;;;;;5047576;28;20412;-47
2022/09/01 14:54:22;;;;;;;2.75;0.80;;;;;;;;;;5040602;28;20045;-58
2022/09/01 14:57:07;;;;;;;2.50;0.82;;;;;;;;;;5046759;28;20047;-57
2022/09/01 14:59:51;;;;;;;4.57;0.75;;;;;;;;;;5038478;28;20078;-57
2022/09/01 15:02:36;;;;;;;6.18;1.77;;;;;;;;;;5049949;28;20052;-48
2022/09/01 15:05:21;;;;;;;2.45;1.05;;;;;;;;;;5035454;28;20037;-53
2022/09/01 15:08:07;;;;;;;6.18;1.20;;;;;;;;;;5041157;28;20455;-38
2022/09/01 15:10:52;;;;;;;1.55;0.80;;;;;;;;;;5040270;28;20957;-39
2022/09/01 15:13:38;;;;;;;2.05;0.60;;;;;;;;;;5041516;28;20030;-46
2022/09/01 15:16:24;;;;;;;4.53;0.68;;;;;;;;;;5043369;28;20469;-45
2022/09/01 15:19:10;;;;;;;1.83;0.60;;;;;;;;;;5045377;28;20078;-46
2022/09/01 15:21:55;;;;;;;2.00;0.50;;;;;;;;;;5036508;28;20040;-57
2022/09/01 15:24:39;;;;;;;3.33;0.90;;;;;;;;;;5041911;28;20108;-56
2022/09/01 15:27:24;;;;;;;5.97;1.88;;;;;;;;;;5044874;28;20453;-58
2022/09/01 15:30:15;;;;;;;5.07;1.10;;;;;;;;;;5041798;28;20048;-57
2022/09/01 15:33:00;;;;;;;5.88;1.77;;;;;;;;;;5036437;28;20129;-58
2022/09/01 15:35:45;;;;;;;3.28;0.85;;;;;;;;;;5040389;28;20037;-58
2022/09/01 15:38:29;;;;;;;2.00;0.60;;;;;;;;;;5043412;28;20045;-58
2022/09/01 15:41:15;;;;;;;2.10;0.70;;;;;;;;;;5042227;28;20065;-58
2022/09/01 15:44:01;;;;;;;1.35;0.55;;;;;;;;;;5042508;28;20367;-58
2022/09/01 15:46:45;;;;;;;2.03;0.68;;;;;;;;;;5028715;28;20048;-59
2022/09/01 15:49:29;;;;;;;2.20;0.73;;;;;;;;;;5037570;28;20083;-56
2022/09/01 15:52:15;;;;;;;2.75;0.68;;;;;;;;;;5031630;28;20056;-57
2022/09/01 15:55:01;;;;;;;0.75;0.38;;;;;;;;;;5037974;28;20053;-54
2022/09/01 15:57:45;;;;;;;1.20;0.38;;;;;;;;;;5045494;28;20037;-59
2022/09/01 16:00:31;;;;;;;1.20;0.77;;;;;;;;;;5030182;28;20041;-43
2022/09/01 16:03:16;;;;;;;5.82;0.90;;;;;;;;;;5039937;28;20432;-60
2022/09/01 16:06:02;;;;;;;3.25;0.80;;;;;;;;;;5044132;28;20044;-57
2022/09/01 16:08:46;;;;;;;1.27;0.40;;;;;;;;;;5035697;28;20033;-58
2022/09/01 16:11:31;;;;;;;3.35;0.50;;;;;;;;;;5043840;28;20065;-58
2022/09/01 16:14:19;;;;;;;1.73;0.90;;;;;;;;;;5042246;28;20191;-57
2022/09/01 16:17:10;;;;;;;2.15;0.90;;;;;;;;;;5025260;28;20048;-57
2022/09/01 16:20:06;;;;;;;2.53;0.68;;;;;;;;;;5044290;28;20040;-57
2022/09/01 16:23:07;;;;;;;2.53;0.75;;;;;;;;;;5035692;28;20055;-58
2022/09/01 16:25:52;;;;;;;3.65;0.85;;;;;;;;;;5049543;28;20373;-59
2022/09/01 16:28:37;;;;;;;1.60;0.70;;;;;;;;;;5038942;28;20084;-57
2022/09/01 16:31:24;;;;;;;0.90;0.50;;;;;;;;;;5049215;28;20054;-57
2022/09/01 16:34:17;;;;;;;1.35;0.52;;;;;;;;;;5047322;28;20438;-60
2022/09/01 16:37:17;;;;;;;2.08;0.60;;;;;;;;;;5031622;28;20073;-57
2022/09/01 16:40:07;;;;;;;1.13;0.40;;;;;;;;;;5050033;28;20028;-59
2022/09/01 16:43:12;;;;;;;3.03;0.55;;;;;;;;;;5044581;28;20107;-53
2022/09/01 16:46:00;;;;;;;1.88;0.40;;;;;;;;;;5074197;28;20077;-55
2022/09/01 16:48:51;;;;;;;2.15;0.60;;;;;;;;;;5044818;28;20045;-56
2022/09/01 16:52:06;;;;;;;0.43;0.30;;;;;;;;;;5063669;28;20383;-59